Aeroporto :







RITROVATECI SU...

 
LOGIN :

Iscrizione | Disclaimer

   EN    FR    IT 

 









Sommario :    VFR   VFR Marginale   IFR   IFR Intensivo   IFR Molto Intensivo
Visibilità : 
Base nubi : 
>= 8 km
>= 3000ft
5 / 8 km
1000 / 3000 ft
1500m / 5 km
500 / 1000 ft
800 / 1500m
200 / 500 ft
< 800m
< 200 ft
Simboli :   Temporali  Nebbia  Neve Forte  Precipitazioni Forti  Vento > 20 kt






- Altitudine del aeroporto : 334 ft
- AEROPORTO CHIUSO.


KCWN - White Mountain

ULTIMO METAR :
  • 230058Z AUTO 18005KT 10SM OVC110 06/M05 A2997 RMK AO2 SLP040 T00641054 $

METARs OBSOLETI :
  • 222358Z AUTO 22005KT 10SM BKN110 08/M07 A2996 RMK AO2 SLP037 T00831066 10089 20074 57013 $
  • 222258Z AUTO 14009KT 10SM BKN110 BKN230 08/M06 A2997 RMK AO2 SLP034 T00821057 $

TAF N/A



MetMap, La meteo Aeronautica in un colpo d'occhio ! - Copyright ORBIFLY Dicembre 2007 - Disclaimer

ORBIFLY MET'MAP TEAM :

Programmazione e sviluppo : Alexandra Zaïnal
Concezione : Baudouin d'Aumeries
Aiuto per la programmazione : Marc-Olivier Méhu
Supporto tecnico e logistico : Manuel Goepfert
Aiuto per la traduzione : Arnaldo La Scala

Contatto : metmap@orbifly.com




FONTI E CREDITI :

   NOAA